createdAt,value
2022-12-29T00:00:04.665Z,19.90
2022-12-29T00:03:06.913Z,22.70
2022-12-29T00:06:09.251Z,20.80
2022-12-29T00:12:15.736Z,19.10
2022-12-29T00:15:17.372Z,20.00
2022-12-29T00:18:19.663Z,26.00
2022-12-29T00:21:23.347Z,29.20
2022-12-29T00:24:24.958Z,24.20
2022-12-29T00:27:27.530Z,23.50
2022-12-29T00:30:29.181Z,26.10
2022-12-29T00:33:32.599Z,25.20
2022-12-29T00:36:38.331Z,23.20
2022-12-29T00:39:40.043Z,26.00
2022-12-29T00:45:43.353Z,25.40
2022-12-29T00:48:44.959Z,23.10
2022-12-29T00:51:47.198Z,20.90
2022-12-29T00:54:48.776Z,23.60
2022-12-29T00:57:50.351Z,19.40
2022-12-29T01:00:52.137Z,21.60
2022-12-29T01:03:55.446Z,21.90
2022-12-29T01:07:00.533Z,22.80
2022-12-29T01:10:02.151Z,23.60
2022-12-29T01:16:06.533Z,29.00
2022-12-29T01:19:09.296Z,25.60
2022-12-29T01:22:10.866Z,26.20
2022-12-29T01:25:12.793Z,29.50
2022-12-29T01:28:14.361Z,26.40
2022-12-29T01:31:16.706Z,31.60
2022-12-29T01:34:18.907Z,27.50
2022-12-29T01:37:20.551Z,26.30
2022-12-29T01:40:22.169Z,19.80
2022-12-29T01:43:39.543Z,20.90
2022-12-29T01:46:43.160Z,22.10
2022-12-29T01:49:44.720Z,21.90
2022-12-29T01:53:16.862Z,21.70
2022-12-29T01:56:20.805Z,23.30
2022-12-29T01:59:28.832Z,21.70
2022-12-29T02:02:33.360Z,23.00
2022-12-29T02:05:57.643Z,22.50
2022-12-29T02:09:00.016Z,24.30
2022-12-29T02:12:01.908Z,23.70
2022-12-29T02:15:04.881Z,23.00
2022-12-29T02:18:36.168Z,25.10
2022-12-29T02:21:56.091Z,26.90
2022-12-29T02:25:00.498Z,25.20
2022-12-29T02:28:22.533Z,27.40
2022-12-29T02:34:52.361Z,26.80
2022-12-29T02:38:26.352Z,29.10
2022-12-29T02:41:42.039Z,24.60
2022-12-29T02:45:06.804Z,26.00
2022-12-29T02:48:24.327Z,27.70
2022-12-29T02:51:35.636Z,28.40
2022-12-29T02:54:37.657Z,28.40
2022-12-29T02:57:39.481Z,28.30
2022-12-29T03:04:17.772Z,28.20
2022-12-29T03:07:41.884Z,27.70
2022-12-29T03:11:01.438Z,31.80
2022-12-29T03:14:09.603Z,27.10
2022-12-29T03:17:27.667Z,27.40
2022-12-29T03:20:45.148Z,24.90
2022-12-29T03:23:49.450Z,27.40
2022-12-29T03:26:52.587Z,29.20
2022-12-29T03:29:58.004Z,29.30
2022-12-29T03:33:03.039Z,28.50
2022-12-29T03:36:08.645Z,27.60
2022-12-29T03:39:11.766Z,31.90
2022-12-29T03:42:19.904Z,28.10
2022-12-29T03:45:21.728Z,28.00
2022-12-29T03:48:23.421Z,31.90
2022-12-29T03:51:25.139Z,34.40
2022-12-29T03:54:26.710Z,27.10
2022-12-29T03:57:28.212Z,29.20
2022-12-29T04:00:29.814Z,29.40
2022-12-29T04:03:31.460Z,26.00
2022-12-29T04:06:33.192Z,27.10
2022-12-29T04:09:34.879Z,25.90
2022-12-29T04:12:36.472Z,27.30
2022-12-29T04:15:38.085Z,27.30
2022-12-29T04:18:39.873Z,25.80
2022-12-29T04:24:42.976Z,28.10
2022-12-29T04:27:44.602Z,25.30
2022-12-29T04:30:47.636Z,23.60
2022-12-29T04:33:49.292Z,51.10
2022-12-29T04:36:51.214Z,26.50
2022-12-29T04:42:54.581Z,18.60
2022-12-29T04:45:56.395Z,23.30
2022-12-29T04:51:59.644Z,21.80
2022-12-29T04:55:01.590Z,24.40
2022-12-29T04:58:03.259Z,25.20
2022-12-29T05:01:04.942Z,23.40
2022-12-29T05:04:06.623Z,24.80
2022-12-29T05:07:08.884Z,22.20
2022-12-29T05:10:11.086Z,24.60
2022-12-29T05:13:12.846Z,23.10
2022-12-29T05:19:16.413Z,22.20
2022-12-29T05:22:18.212Z,22.00
2022-12-29T05:25:20.245Z,25.40
2022-12-29T05:28:21.932Z,24.60
2022-12-29T05:31:23.706Z,34.70
2022-12-29T05:37:26.942Z,33.00
2022-12-29T05:40:28.642Z,31.10
2022-12-29T05:43:30.376Z,29.20
2022-12-29T05:46:32.318Z,22.60
2022-12-29T05:49:34.070Z,21.60
2022-12-29T05:52:35.687Z,16.20
2022-12-29T05:55:37.499Z,18.30
2022-12-29T06:01:40.863Z,20.10
2022-12-29T06:04:42.648Z,19.30
2022-12-29T06:07:44.424Z,18.00
2022-12-29T06:13:47.711Z,19.90
2022-12-29T06:19:51.110Z,20.60
2022-12-29T06:22:52.757Z,19.50
2022-12-29T06:25:54.391Z,20.20
2022-12-29T06:31:57.922Z,19.90
2022-12-29T06:38:01.149Z,17.70
2022-12-29T06:44:04.341Z,18.10
2022-12-29T06:47:05.915Z,18.30
2022-12-29T06:50:07.928Z,20.70
2022-12-29T06:53:09.684Z,22.00
2022-12-29T06:59:13.045Z,18.30
2022-12-29T07:05:16.767Z,18.50
2022-12-29T07:08:18.768Z,19.40
2022-12-29T07:11:20.708Z,21.60
2022-12-29T07:14:22.438Z,19.30
2022-12-29T07:20:27.286Z,18.30
2022-12-29T07:23:29.342Z,18.30
2022-12-29T07:26:36.104Z,20.20
2022-12-29T07:29:38.747Z,18.70
2022-12-29T07:32:40.467Z,18.80
2022-12-29T07:38:44.332Z,24.40
2022-12-29T07:41:46.033Z,23.70
2022-12-29T07:47:50.374Z,26.80
2022-12-29T07:50:53.005Z,21.20
2022-12-29T07:53:54.571Z,24.40
2022-12-29T07:56:56.422Z,26.10
2022-12-29T07:59:58.016Z,27.20
2022-12-29T08:03:00.983Z,26.20
2022-12-29T08:06:04.328Z,25.70
2022-12-29T08:09:16.548Z,23.70
2022-12-29T08:12:21.536Z,24.30
2022-12-29T08:15:28.570Z,22.50
2022-12-29T08:18:34.022Z,23.50
2022-12-29T08:24:37.451Z,43.80
2022-12-29T08:30:40.829Z,26.90
2022-12-29T08:33:42.440Z,32.80
2022-12-29T08:36:43.979Z,33.60
2022-12-29T08:42:47.533Z,31.40
2022-12-29T08:48:50.724Z,25.20
2022-12-29T08:54:54.072Z,21.70
2022-12-29T08:57:55.725Z,22.60
2022-12-29T09:00:58.044Z,21.00
2022-12-29T09:04:16.964Z,20.00
2022-12-29T09:07:19.272Z,19.50
2022-12-29T09:10:20.965Z,18.20
2022-12-29T09:13:22.725Z,17.90
2022-12-29T09:16:25.310Z,18.50
2022-12-29T09:19:27.085Z,19.60
2022-12-29T09:22:28.692Z,19.30
2022-12-29T09:25:30.493Z,17.60
2022-12-29T09:28:32.425Z,17.80
2022-12-29T09:31:33.994Z,18.40
2022-12-29T09:34:35.667Z,21.80
2022-12-29T09:37:37.303Z,27.60
2022-12-29T09:40:40.176Z,25.00
2022-12-29T09:44:10.207Z,23.10
2022-12-29T09:47:14.606Z,20.80
2022-12-29T09:50:25.553Z,23.50
2022-12-29T09:53:31.275Z,23.00
2022-12-29T09:56:33.516Z,22.70
2022-12-29T09:59:43.208Z,22.40
2022-12-29T10:02:51.128Z,18.20
2022-12-29T10:06:08.467Z,18.50
2022-12-29T10:09:29.299Z,18.00
2022-12-29T10:12:53.416Z,15.20
2022-12-29T10:16:03.020Z,17.30
2022-12-29T10:19:11.196Z,17.30
2022-12-29T10:22:38.737Z,17.80
2022-12-29T10:25:42.440Z,18.70
2022-12-29T10:28:48.737Z,16.00
2022-12-29T10:31:58.289Z,15.30
2022-12-29T10:35:06.515Z,20.70
2022-12-29T10:38:36.736Z,22.70
2022-12-29T10:41:52.377Z,24.10
2022-12-29T10:44:57.753Z,22.40
2022-12-29T10:48:03.543Z,22.90
2022-12-29T10:51:09.717Z,19.60
2022-12-29T10:54:35.582Z,22.80
2022-12-29T10:57:39.528Z,20.40
2022-12-29T11:00:54.957Z,20.00
2022-12-29T11:04:29.272Z,16.40
2022-12-29T11:07:32.101Z,15.90
2022-12-29T11:10:33.702Z,12.80
2022-12-29T11:13:59.926Z,19.00
2022-12-29T11:17:04.173Z,17.80
2022-12-29T11:20:36.591Z,16.80
2022-12-29T11:23:40.567Z,19.50
2022-12-29T11:26:44.968Z,16.00
2022-12-29T11:29:46.676Z,17.40
2022-12-29T11:32:53.166Z,21.00
2022-12-29T11:35:58.842Z,19.80
2022-12-29T11:39:00.865Z,18.40
2022-12-29T11:42:03.411Z,20.10
2022-12-29T11:45:11.061Z,18.90
2022-12-29T11:48:21.127Z,17.80
2022-12-29T11:51:29.321Z,20.00
2022-12-29T11:54:34.275Z,22.80
2022-12-29T11:57:36.424Z,19.80
2022-12-29T12:00:39.130Z,19.40
2022-12-29T12:03:48.275Z,22.90
2022-12-29T12:07:08.557Z,19.20
2022-12-29T12:10:20.799Z,19.80
2022-12-29T12:13:36.125Z,18.60
2022-12-29T12:16:43.118Z,20.10
2022-12-29T12:19:51.873Z,17.50
2022-12-29T12:23:11.759Z,16.70
2022-12-29T12:26:17.373Z,19.10
2022-12-29T12:29:26.702Z,20.30
2022-12-29T12:32:37.955Z,18.90
2022-12-29T12:35:42.431Z,19.50
2022-12-29T12:38:55.322Z,20.00
2022-12-29T12:42:06.224Z,19.50
2022-12-29T12:45:26.136Z,18.20
2022-12-29T12:48:46.547Z,19.10
2022-12-29T12:51:50.881Z,18.50
2022-12-29T12:55:16.929Z,18.10
2022-12-29T12:58:57.270Z,19.10
2022-12-29T13:02:33.975Z,19.40
2022-12-29T13:05:48.210Z,19.60
2022-12-29T13:09:01.706Z,19.80
2022-12-29T13:12:25.405Z,21.50
2022-12-29T13:15:42.924Z,18.10
2022-12-29T13:18:44.751Z,20.10
2022-12-29T13:22:10.811Z,21.70
2022-12-29T13:25:46.332Z,19.10
2022-12-29T13:29:05.407Z,17.90
2022-12-29T13:32:22.387Z,17.70
2022-12-29T13:35:36.036Z,19.40
2022-12-29T13:38:44.297Z,20.30
2022-12-29T13:41:54.393Z,20.30
2022-12-29T13:44:58.761Z,18.50
2022-12-29T13:48:10.805Z,18.80
2022-12-29T13:51:12.691Z,20.60
2022-12-29T13:54:51.803Z,18.80
2022-12-29T13:58:21.578Z,20.10
2022-12-29T14:02:05.629Z,21.00
2022-12-29T14:05:19.619Z,19.90
2022-12-29T14:08:21.121Z,22.90
2022-12-29T14:11:25.472Z,20.40
2022-12-29T14:14:30.270Z,21.00
2022-12-29T14:17:31.918Z,25.10
2022-12-29T14:20:34.169Z,23.20
2022-12-29T14:23:42.394Z,21.20
2022-12-29T14:26:44.153Z,20.50
2022-12-29T14:29:48.075Z,23.30
2022-12-29T14:33:03.984Z,25.20
2022-12-29T14:36:24.193Z,25.70
2022-12-29T14:39:37.827Z,27.00
2022-12-29T14:42:39.903Z,26.00
2022-12-29T14:45:42.837Z,22.80
2022-12-29T14:48:45.070Z,23.70
2022-12-29T14:51:47.856Z,21.90
2022-12-29T14:54:51.919Z,21.50
2022-12-29T14:57:59.539Z,22.50
2022-12-29T15:01:01.660Z,22.20
2022-12-29T15:04:19.715Z,21.30
2022-12-29T15:07:21.555Z,24.10
2022-12-29T15:10:24.182Z,23.50
2022-12-29T15:13:36.152Z,23.10
2022-12-29T15:16:38.009Z,23.70
2022-12-29T15:19:39.953Z,24.50
2022-12-29T15:22:45.451Z,25.60
2022-12-29T15:25:58.568Z,25.00
2022-12-29T15:29:00.163Z,24.30
2022-12-29T15:35:24.909Z,24.80
2022-12-29T15:38:34.752Z,23.50
2022-12-29T15:41:47.549Z,28.50
2022-12-29T15:44:54.186Z,26.40
2022-12-29T15:47:59.613Z,24.60
2022-12-29T15:51:01.566Z,31.00
2022-12-29T15:54:03.673Z,25.90
2022-12-29T15:57:17.410Z,33.70
2022-12-29T16:00:36.309Z,30.80
2022-12-29T16:03:38.025Z,30.40
2022-12-29T16:06:45.946Z,29.50
2022-12-29T16:09:47.497Z,33.30
2022-12-29T16:15:53.509Z,41.80
2022-12-29T16:18:58.069Z,35.90
2022-12-29T16:22:01.817Z,31.80
2022-12-29T16:25:29.315Z,29.90
2022-12-29T16:28:41.283Z,29.00
2022-12-29T16:31:52.159Z,29.30
2022-12-29T16:35:10.855Z,31.30
2022-12-29T16:38:22.500Z,33.80
2022-12-29T16:41:32.607Z,31.40
2022-12-29T16:44:34.268Z,37.00
2022-12-29T16:47:36.046Z,30.60
2022-12-29T16:50:40.020Z,33.60
2022-12-29T16:53:43.811Z,31.50
2022-12-29T16:56:46.038Z,28.30
2022-12-29T16:59:52.132Z,33.80
2022-12-29T17:02:57.063Z,30.10
2022-12-29T17:05:58.786Z,32.40
2022-12-29T17:09:00.427Z,31.80
2022-12-29T17:15:22.709Z,35.00
2022-12-29T17:18:24.394Z,32.70
2022-12-29T17:24:27.946Z,32.50
2022-12-29T17:27:52.641Z,30.50
2022-12-29T17:30:58.822Z,32.10
2022-12-29T17:34:00.450Z,30.90
2022-12-29T17:40:05.863Z,32.60
2022-12-29T17:43:10.316Z,31.40
2022-12-29T17:46:11.984Z,31.10
2022-12-29T17:49:16.496Z,31.10
2022-12-29T17:52:18.477Z,36.10
2022-12-29T17:55:22.334Z,31.60
2022-12-29T17:58:29.137Z,33.70
2022-12-29T18:01:35.599Z,30.90
2022-12-29T18:04:38.990Z,35.70
2022-12-29T18:07:40.515Z,33.10
2022-12-29T18:13:46.685Z,42.90
2022-12-29T18:16:48.734Z,35.30
2022-12-29T18:22:51.932Z,36.70
2022-12-29T18:25:54.445Z,33.60
2022-12-29T18:28:57.225Z,35.70
2022-12-29T18:31:58.876Z,32.70
2022-12-29T18:38:02.095Z,32.80
2022-12-29T18:41:03.823Z,36.70
2022-12-29T18:47:07.083Z,33.30
2022-12-29T18:50:09.078Z,39.20
2022-12-29T18:56:20.055Z,37.70
2022-12-29T18:59:21.680Z,37.90
2022-12-29T19:05:30.978Z,35.00
2022-12-29T19:08:32.512Z,33.90
2022-12-29T19:11:34.173Z,33.40
2022-12-29T19:17:37.273Z,34.60
2022-12-29T19:23:41.463Z,35.80
2022-12-29T19:26:43.494Z,38.20
2022-12-29T19:32:51.755Z,33.20
2022-12-29T19:35:59.243Z,34.50
2022-12-29T19:39:00.964Z,33.50
2022-12-29T19:42:05.521Z,33.40
2022-12-29T19:45:08.352Z,34.50
2022-12-29T19:48:15.633Z,33.50
2022-12-29T19:51:17.705Z,35.20
2022-12-29T19:54:19.281Z,36.80
2022-12-29T19:57:21.900Z,33.30
2022-12-29T20:00:25.143Z,32.20
2022-12-29T20:03:26.806Z,32.80
2022-12-29T20:09:30.076Z,31.30
2022-12-29T20:12:31.745Z,32.60
2022-12-29T20:15:33.632Z,31.40
2022-12-29T20:18:35.868Z,31.70
2022-12-29T20:21:37.543Z,31.10
2022-12-29T20:24:41.650Z,32.00
2022-12-29T20:27:46.958Z,32.50
2022-12-29T20:31:43.998Z,32.30
2022-12-29T20:34:46.754Z,33.40
2022-12-29T20:37:48.448Z,33.20
2022-12-29T20:43:51.995Z,49.60
2022-12-29T20:46:53.815Z,39.40
2022-12-29T20:49:55.485Z,41.20
2022-12-29T20:52:57.081Z,35.90
2022-12-29T21:02:26.393Z,44.40
2022-12-29T21:05:29.271Z,48.50
2022-12-29T21:08:30.945Z,43.90
2022-12-29T21:14:34.209Z,44.10
2022-12-29T21:17:36.521Z,40.60
2022-12-29T21:20:38.073Z,40.10
2022-12-29T21:23:39.652Z,40.70
2022-12-29T21:29:42.822Z,38.70
2022-12-29T21:32:44.544Z,38.70
2022-12-29T21:41:49.893Z,37.10
2022-12-29T21:44:51.546Z,39.60
2022-12-29T21:47:53.951Z,41.50
2022-12-29T21:50:58.471Z,41.20
2022-12-29T21:54:01.624Z,39.70
2022-12-29T21:57:04.331Z,47.70
2022-12-29T22:00:08.039Z,46.60
2022-12-29T22:03:18.325Z,43.40
2022-12-29T22:06:23.963Z,45.90
2022-12-29T22:09:25.704Z,45.20
2022-12-29T22:15:33.139Z,48.70
2022-12-29T22:18:34.878Z,49.80
2022-12-29T22:24:38.114Z,44.20
2022-12-29T22:27:40.330Z,45.90
2022-12-29T22:30:42.030Z,51.20
2022-12-29T22:36:46.879Z,45.70
2022-12-29T22:39:48.474Z,52.70
2022-12-29T22:42:50.066Z,57.50
2022-12-29T22:45:51.671Z,59.30
2022-12-29T22:48:53.383Z,63.50
2022-12-29T22:55:00.310Z,55.80
2022-12-29T22:58:04.987Z,59.00
2022-12-29T23:04:55.779Z,54.60
2022-12-29T23:10:31.944Z,59.90
2022-12-29T23:13:34.484Z,60.10
2022-12-29T23:16:36.099Z,64.50
2022-12-29T23:19:37.821Z,55.90
2022-12-29T23:22:39.415Z,56.50
2022-12-29T23:25:41.108Z,60.40
2022-12-29T23:28:42.762Z,63.50
2022-12-29T23:31:45.832Z,59.10
2022-12-29T23:34:47.482Z,58.30
2022-12-29T23:37:49.022Z,65.80
2022-12-29T23:40:50.619Z,64.00
2022-12-29T23:43:52.290Z,67.50
2022-12-29T23:46:54.059Z,62.00
2022-12-29T23:49:55.768Z,61.70
2022-12-29T23:52:57.329Z,67.20
2022-12-29T23:55:58.937Z,64.70
2022-12-29T23:59:03.786Z,58.60
